createdAt,value
2019-02-06T00:00:26.349Z,0
2019-02-06T00:01:15.956Z,0
2019-02-06T00:02:15.933Z,0
2019-02-06T00:03:15.668Z,0
2019-02-06T00:04:17.957Z,0
2019-02-06T00:05:22.773Z,0
2019-02-06T00:06:15.874Z,0
2019-02-06T00:07:15.838Z,0
2019-02-06T00:08:15.855Z,0
2019-02-06T00:09:15.310Z,0
2019-02-06T00:10:15.794Z,0
2019-02-06T00:11:15.755Z,0
2019-02-06T00:12:16.343Z,0
2019-02-06T00:13:15.844Z,0
2019-02-06T00:14:15.783Z,0
2019-02-06T00:15:15.673Z,0
2019-02-06T00:16:15.529Z,0
2019-02-06T00:17:15.656Z,0
2019-02-06T00:18:15.717Z,0
2019-02-06T00:19:16.143Z,0
2019-02-06T00:20:15.538Z,0
2019-02-06T00:21:15.532Z,0
2019-02-06T00:22:15.516Z,0
2019-02-06T00:23:15.487Z,0
2019-02-06T00:24:15.463Z,0
2019-02-06T00:25:15.433Z,0
2019-02-06T00:26:15.045Z,0
2019-02-06T00:27:15.953Z,0
2019-02-06T00:28:15.383Z,0
2019-02-06T00:29:15.364Z,0
2019-02-06T00:30:15.333Z,0
2019-02-06T00:31:15.069Z,0
2019-02-06T00:32:15.320Z,0
2019-02-06T00:33:15.262Z,0
2019-02-06T00:34:15.341Z,0
2019-02-06T00:35:25.446Z,0
2019-02-06T00:36:15.202Z,0
2019-02-06T00:37:15.187Z,0
2019-02-06T00:38:15.171Z,0
2019-02-06T00:39:15.206Z,0
2019-02-06T00:40:15.134Z,0
2019-02-06T00:41:14.843Z,0
2019-02-06T00:42:15.128Z,0
2019-02-06T00:43:15.225Z,0
2019-02-06T00:44:16.029Z,0
2019-02-06T00:45:15.040Z,0
2019-02-06T00:46:15.004Z,0
2019-02-06T00:47:14.988Z,0
2019-02-06T00:48:14.951Z,0
2019-02-06T00:49:14.929Z,0
2019-02-06T00:50:15.462Z,0
2019-02-06T00:51:14.646Z,0
2019-02-06T00:52:14.868Z,0
2019-02-06T00:53:14.852Z,0
2019-02-06T00:54:14.833Z,0
2019-02-06T00:55:14.643Z,0
2019-02-06T00:56:14.787Z,0
2019-02-06T00:57:14.535Z,0
2019-02-06T00:58:15.389Z,0
2019-02-06T00:59:14.715Z,0
2019-02-06T01:00:14.707Z,0
2019-02-06T01:01:14.802Z,0
2019-02-06T01:02:14.408Z,0
2019-02-06T01:03:14.649Z,0
2019-02-06T01:04:14.617Z,0
2019-02-06T01:05:14.836Z,0
2019-02-06T01:06:14.623Z,0
2019-02-06T01:07:14.554Z,0
2019-02-06T01:08:14.531Z,0
2019-02-06T01:09:14.515Z,0
2019-02-06T01:10:14.235Z,0
2019-02-06T01:11:14.232Z,0
2019-02-06T01:12:14.446Z,0
2019-02-06T01:13:15.051Z,0
2019-02-06T01:14:14.152Z,0
2019-02-06T01:15:14.430Z,0
2019-02-06T01:16:14.365Z,0
2019-02-06T01:17:14.391Z,0
2019-02-06T01:18:14.350Z,0
2019-02-06T01:19:14.040Z,0
2019-02-06T01:20:14.587Z,0
2019-02-06T01:21:14.260Z,0
2019-02-06T01:22:14.225Z,0
2019-02-06T01:23:16.112Z,0
2019-02-06T01:24:14.190Z,0
2019-02-06T01:25:14.169Z,0
2019-02-06T01:26:14.152Z,0
2019-02-06T01:27:14.115Z,0
2019-02-06T01:28:14.731Z,0
2019-02-06T01:29:13.945Z,0
2019-02-06T01:30:14.141Z,0
2019-02-06T01:31:14.065Z,0
2019-02-06T01:32:13.769Z,0
2019-02-06T01:33:13.740Z,0
2019-02-06T01:34:13.726Z,0
2019-02-06T01:35:14.018Z,0
2019-02-06T01:36:14.138Z,0
2019-02-06T01:37:13.912Z,0
2019-02-06T01:38:13.896Z,0
2019-02-06T01:39:13.615Z,0
2019-02-06T01:40:13.836Z,0
2019-02-06T01:41:13.573Z,0
2019-02-06T01:42:13.809Z,0
2019-02-06T01:43:14.681Z,0
2019-02-06T01:44:13.780Z,0
2019-02-06T01:45:13.484Z,0
2019-02-06T01:46:13.716Z,0
2019-02-06T01:47:13.730Z,0
2019-02-06T01:48:13.683Z,0
2019-02-06T01:49:13.645Z,0
2019-02-06T01:50:13.792Z,0
2019-02-06T01:51:13.910Z,0
2019-02-06T01:52:13.583Z,0
2019-02-06T01:53:13.575Z,0
2019-02-06T01:54:13.534Z,0
2019-02-06T01:55:13.526Z,0
2019-02-06T01:56:13.494Z,0
2019-02-06T01:57:13.468Z,0
2019-02-06T01:58:14.374Z,0
2019-02-06T01:59:13.422Z,0
2019-02-06T02:00:13.401Z,0
2019-02-06T02:01:13.388Z,0
2019-02-06T02:02:13.366Z,0
2019-02-06T02:03:13.439Z,0
2019-02-06T02:04:13.326Z,0
2019-02-06T02:05:13.571Z,0
2019-02-06T02:06:13.119Z,0
2019-02-06T02:07:13.039Z,0
2019-02-06T02:08:13.231Z,0
2019-02-06T02:09:13.216Z,0
2019-02-06T02:10:12.964Z,0
2019-02-06T02:11:13.185Z,0
2019-02-06T02:12:13.161Z,0
2019-02-06T02:13:14.021Z,0
2019-02-06T02:14:13.124Z,0
2019-02-06T02:15:13.086Z,0
2019-02-06T02:16:13.069Z,0
2019-02-06T02:17:13.066Z,0
2019-02-06T02:18:13.036Z,0
2019-02-06T02:19:12.869Z,0
2019-02-06T02:20:12.858Z,0
2019-02-06T02:21:13.562Z,0
2019-02-06T02:22:12.947Z,0
2019-02-06T02:23:12.676Z,0
2019-02-06T02:24:12.762Z,0
2019-02-06T02:25:12.873Z,0
2019-02-06T02:26:12.856Z,0
2019-02-06T02:27:12.333Z,0
2019-02-06T02:28:12.797Z,0
2019-02-06T02:29:12.804Z,0
2019-02-06T02:30:12.774Z,0
2019-02-06T02:31:12.747Z,0
2019-02-06T02:32:12.734Z,0
2019-02-06T02:33:12.715Z,0
2019-02-06T02:34:12.430Z,0
2019-02-06T02:35:12.663Z,0
2019-02-06T02:36:22.957Z,0
2019-02-06T02:37:12.627Z,0
2019-02-06T02:38:12.618Z,0
2019-02-06T02:39:12.321Z,0
2019-02-06T02:40:12.609Z,0
2019-02-06T02:41:12.328Z,0
2019-02-06T02:42:12.522Z,0
2019-02-06T02:43:12.501Z,0
2019-02-06T02:44:13.388Z,0
2019-02-06T02:45:12.541Z,0
2019-02-06T02:46:12.179Z,0
2019-02-06T02:47:12.421Z,0
2019-02-06T02:48:12.381Z,0
2019-02-06T02:49:12.123Z,0
2019-02-06T02:50:12.344Z,0
2019-02-06T02:51:12.280Z,0
2019-02-06T02:52:12.490Z,0
2019-02-06T02:53:12.284Z,0
2019-02-06T02:54:12.264Z,0
2019-02-06T02:55:12.286Z,0
2019-02-06T02:56:12.219Z,0
2019-02-06T02:57:11.959Z,0
2019-02-06T02:58:11.936Z,0
2019-02-06T02:59:12.711Z,0
2019-02-06T03:00:12.127Z,0
2019-02-06T03:01:12.110Z,0
2019-02-06T03:02:11.843Z,0
2019-02-06T03:03:12.057Z,0
2019-02-06T03:04:12.044Z,0
2019-02-06T03:05:12.011Z,0
2019-02-06T03:06:11.509Z,0
2019-02-06T03:07:12.791Z,0
2019-02-06T03:08:11.959Z,0
2019-02-06T03:09:11.941Z,0
2019-02-06T03:10:11.662Z,0
2019-02-06T03:11:11.887Z,0
2019-02-06T03:12:11.915Z,0
2019-02-06T03:13:11.989Z,0
2019-02-06T03:14:11.781Z,0
2019-02-06T03:15:12.094Z,0
2019-02-06T03:16:11.786Z,0
2019-02-06T03:17:11.539Z,0
2019-02-06T03:18:11.486Z,0
2019-02-06T03:19:11.720Z,0
2019-02-06T03:20:11.708Z,0
2019-02-06T03:21:11.686Z,0
2019-02-06T03:22:12.205Z,0
2019-02-06T03:23:11.647Z,0
2019-02-06T03:24:11.634Z,0
2019-02-06T03:25:11.641Z,0
2019-02-06T03:26:11.576Z,0
2019-02-06T03:27:11.556Z,0
2019-02-06T03:28:11.536Z,0
2019-02-06T03:29:11.268Z,0
2019-02-06T03:30:13.825Z,0
2019-02-06T03:31:11.428Z,0
2019-02-06T03:32:11.451Z,0
2019-02-06T03:33:11.441Z,0
2019-02-06T03:34:12.278Z,0
2019-02-06T03:35:11.400Z,0
2019-02-06T03:36:11.364Z,0
2019-02-06T03:37:11.597Z,0
2019-02-06T03:38:11.551Z,0
2019-02-06T03:39:11.339Z,0
2019-02-06T03:40:11.046Z,0
2019-02-06T03:41:11.267Z,0
2019-02-06T03:42:11.264Z,0
2019-02-06T03:43:10.756Z,0
2019-02-06T03:44:11.281Z,0
2019-02-06T03:45:11.851Z,0
2019-02-06T03:46:11.206Z,0
2019-02-06T03:47:11.143Z,0
2019-02-06T03:48:10.884Z,0
2019-02-06T03:49:11.106Z,0
2019-02-06T03:50:11.195Z,0
2019-02-06T03:51:11.182Z,0
2019-02-06T03:52:11.335Z,0
2019-02-06T03:53:13.787Z,0
2019-02-06T03:54:10.819Z,0
2019-02-06T03:55:10.762Z,0
2019-02-06T03:56:10.957Z,0
2019-02-06T03:57:10.802Z,0
2019-02-06T03:58:10.673Z,0
2019-02-06T03:59:10.665Z,0
2019-02-06T04:00:11.802Z,0
2019-02-06T04:01:14.075Z,0
2019-02-06T04:02:10.589Z,0
2019-02-06T04:03:10.826Z,0
2019-02-06T04:04:10.655Z,0
2019-02-06T04:05:10.815Z,0
2019-02-06T04:06:10.769Z,0
2019-02-06T04:07:11.070Z,0
2019-02-06T04:08:11.039Z,0
2019-02-06T04:09:10.897Z,0
2019-02-06T04:10:10.708Z,0
2019-02-06T04:11:10.669Z,0
2019-02-06T04:12:10.652Z,0
2019-02-06T04:13:10.373Z,0
2019-02-06T04:14:10.610Z,0
2019-02-06T04:15:11.178Z,0
2019-02-06T04:16:10.627Z,0
2019-02-06T04:17:10.661Z,0
2019-02-06T04:18:10.529Z,0
2019-02-06T04:19:10.507Z,0
2019-02-06T04:20:10.264Z,0
2019-02-06T04:21:10.484Z,0
2019-02-06T04:22:10.450Z,0
2019-02-06T04:23:10.947Z,0
2019-02-06T04:24:10.399Z,0
2019-02-06T04:25:10.390Z,0
2019-02-06T04:26:10.123Z,0
2019-02-06T04:27:10.345Z,0
2019-02-06T04:28:10.331Z,0
2019-02-06T04:29:10.310Z,0
2019-02-06T04:30:10.067Z,0
2019-02-06T04:31:11.026Z,0
2019-02-06T04:32:10.039Z,0
2019-02-06T04:33:10.281Z,0
2019-02-06T04:34:10.214Z,0
2019-02-06T04:35:10.197Z,0
2019-02-06T04:36:10.166Z,0
2019-02-06T04:37:14.065Z,0
2019-02-06T04:38:10.440Z,0
2019-02-06T04:39:10.548Z,0
2019-02-06T04:40:10.102Z,0
2019-02-06T04:41:09.816Z,0
2019-02-06T04:42:10.050Z,0
2019-02-06T04:43:10.033Z,0
2019-02-06T04:44:10.008Z,0
2019-02-06T04:45:09.996Z,0
2019-02-06T04:46:10.867Z,0
2019-02-06T04:47:09.714Z,0
2019-02-06T04:48:09.972Z,0
2019-02-06T04:49:09.910Z,0
2019-02-06T04:50:09.652Z,0
2019-02-06T04:51:09.968Z,0
2019-02-06T04:52:09.606Z,0
2019-02-06T04:53:10.069Z,0
2019-02-06T04:54:10.246Z,0
2019-02-06T04:55:09.836Z,0
2019-02-06T04:56:09.779Z,0
2019-02-06T04:57:12.226Z,0
2019-02-06T04:58:09.524Z,0
2019-02-06T04:59:09.482Z,0
2019-02-06T05:00:09.464Z,0
2019-02-06T05:01:09.714Z,0
2019-02-06T05:02:09.674Z,0
2019-02-06T05:03:09.669Z,0
2019-02-06T05:04:09.620Z,0
2019-02-06T05:05:09.361Z,0
2019-02-06T05:06:09.600Z,0
2019-02-06T05:07:21.025Z,0
2019-02-06T05:08:09.717Z,0
2019-02-06T05:09:10.102Z,0
2019-02-06T05:10:09.505Z,0
2019-02-06T05:11:09.480Z,0
2019-02-06T05:12:11.976Z,0
2019-02-06T05:13:09.352Z,0
2019-02-06T05:14:09.204Z,0
2019-02-06T05:15:09.174Z,0
2019-02-06T05:16:10.033Z,0
2019-02-06T05:17:09.358Z,0
2019-02-06T05:18:09.117Z,0
2019-02-06T05:19:09.334Z,0
2019-02-06T05:20:09.325Z,0
2019-02-06T05:21:09.282Z,0
2019-02-06T05:22:08.824Z,0
2019-02-06T05:23:08.747Z,0
2019-02-06T05:24:09.659Z,0
2019-02-06T05:25:09.221Z,0
2019-02-06T05:26:09.194Z,0
2019-02-06T05:27:08.935Z,0
2019-02-06T05:28:09.147Z,0
2019-02-06T05:29:09.122Z,0
2019-02-06T05:30:09.146Z,0
2019-02-06T05:31:09.583Z,0
2019-02-06T05:32:09.122Z,0
2019-02-06T05:33:09.054Z,0
2019-02-06T05:34:09.044Z,0
2019-02-06T05:35:09.001Z,0
2019-02-06T05:36:08.985Z,0
2019-02-06T05:37:08.974Z,0
2019-02-06T05:38:08.973Z,0
2019-02-06T05:39:09.604Z,0
2019-02-06T05:40:08.923Z,0
2019-02-06T05:41:08.893Z,0
2019-02-06T05:42:08.654Z,0
2019-02-06T05:43:08.848Z,0
2019-02-06T05:44:08.588Z,0
2019-02-06T05:45:08.566Z,0
2019-02-06T05:46:09.132Z,0
2019-02-06T05:47:08.763Z,0
2019-02-06T05:48:08.581Z,0
2019-02-06T05:49:08.739Z,0
2019-02-06T05:50:08.746Z,0
2019-02-06T05:51:08.428Z,0
2019-02-06T05:52:08.662Z,0
2019-02-06T05:53:08.711Z,0
2019-02-06T05:54:09.410Z,0
2019-02-06T05:55:11.663Z,0
2019-02-06T05:56:08.614Z,0
2019-02-06T05:57:08.559Z,0
2019-02-06T05:58:08.544Z,0
2019-02-06T05:59:08.523Z,0
2019-02-06T06:00:08.745Z,0
2019-02-06T06:01:08.915Z,0
2019-02-06T06:02:08.221Z,0
2019-02-06T06:03:08.197Z,0
2019-02-06T06:04:08.423Z,4
2019-02-06T06:05:08.418Z,0
2019-02-06T06:06:11.496Z,4
2019-02-06T06:07:08.132Z,4
2019-02-06T06:08:08.377Z,4
2019-02-06T06:09:08.856Z,4
2019-02-06T06:10:08.349Z,4
2019-02-06T06:11:08.288Z,4
2019-02-06T06:12:08.318Z,8
2019-02-06T06:13:08.246Z,8
2019-02-06T06:14:08.259Z,8
2019-02-06T06:15:08.206Z,8
2019-02-06T06:16:09.061Z,12
2019-02-06T06:17:07.931Z,16
2019-02-06T06:18:08.222Z,16
2019-02-06T06:19:08.183Z,20
2019-02-06T06:20:08.106Z,24
2019-02-06T06:21:08.090Z,28
2019-02-06T06:22:08.066Z,32
2019-02-06T06:23:08.356Z,40
2019-02-06T06:24:11.616Z,48
2019-02-06T06:25:08.166Z,56
2019-02-06T06:26:08.074Z,60
2019-02-06T06:27:07.949Z,76
2019-02-06T06:28:07.942Z,84
2019-02-06T06:29:07.918Z,96
2019-02-06T06:30:07.649Z,108
2019-02-06T06:31:08.517Z,124
2019-02-06T06:32:07.899Z,132
2019-02-06T06:33:07.843Z,156
2019-02-06T06:34:07.820Z,176
2019-02-06T06:35:07.921Z,188
2019-02-06T06:36:07.774Z,200
2019-02-06T06:37:07.763Z,236
2019-02-06T06:38:09.886Z,248
2019-02-06T06:39:08.082Z,284
2019-02-06T06:40:07.702Z,296
2019-02-06T06:41:07.685Z,324
2019-02-06T06:42:07.418Z,348
2019-02-06T06:43:07.645Z,372
2019-02-06T06:44:07.612Z,416
2019-02-06T06:45:07.603Z,428
2019-02-06T06:46:08.245Z,476
2019-02-06T06:47:07.557Z,508
2019-02-06T06:48:07.535Z,512
2019-02-06T06:49:07.572Z,572
2019-02-06T06:50:07.510Z,660
2019-02-06T06:51:07.485Z,672
2019-02-06T06:52:08.949Z,708
2019-02-06T06:53:07.425Z,788
2019-02-06T06:54:07.978Z,804
2019-02-06T06:55:07.533Z,872
2019-02-06T06:56:07.388Z,908
2019-02-06T06:57:07.354Z,932
2019-02-06T06:58:07.332Z,1032
2019-02-06T06:59:07.318Z,1120
2019-02-06T07:00:07.213Z,1120
2019-02-06T07:01:10.560Z,1164
2019-02-06T07:02:07.626Z,1200
2019-02-06T07:03:07.411Z,1400
2019-02-06T07:04:07.223Z,1376
2019-02-06T07:05:10.436Z,1296
2019-02-06T07:06:07.189Z,1500
2019-02-06T07:07:06.915Z,1548
2019-02-06T07:08:18.355Z,1692
2019-02-06T07:09:07.999Z,1724
2019-02-06T07:10:06.622Z,1556
2019-02-06T07:11:07.086Z,1572
2019-02-06T07:12:07.075Z,1660
2019-02-06T07:13:07.041Z,1600
2019-02-06T07:14:06.800Z,1860
2019-02-06T07:15:06.995Z,1956
2019-02-06T07:16:07.667Z,1664
2019-02-06T07:17:07.539Z,1656
2019-02-06T07:18:06.946Z,1736
2019-02-06T07:19:07.025Z,1760
2019-02-06T07:20:06.896Z,1932
2019-02-06T07:21:08.875Z,1924
2019-02-06T07:22:06.861Z,2140
2019-02-06T07:23:06.597Z,1976
2019-02-06T07:24:07.131Z,1972
2019-02-06T07:25:07.071Z,1960
2019-02-06T07:26:06.783Z,2084
2019-02-06T07:27:06.769Z,2068
2019-02-06T07:28:06.751Z,2244
2019-02-06T07:29:06.734Z,2168
2019-02-06T07:30:06.703Z,2284
2019-02-06T07:31:06.795Z,2288
2019-02-06T07:32:07.260Z,2244
2019-02-06T07:33:06.674Z,2296
2019-02-06T07:34:06.526Z,2372
2019-02-06T07:35:06.622Z,2452
2019-02-06T07:36:06.586Z,2516
2019-02-06T07:37:06.349Z,2528
2019-02-06T07:38:06.298Z,2600
2019-02-06T07:39:06.789Z,2660
2019-02-06T07:40:06.776Z,2720
2019-02-06T07:41:06.478Z,2780
2019-02-06T07:42:06.226Z,2836
2019-02-06T07:43:06.217Z,2880
2019-02-06T07:44:06.433Z,2936
2019-02-06T07:45:06.417Z,2980
2019-02-06T07:46:06.402Z,3032
2019-02-06T07:47:07.303Z,3068
2019-02-06T07:48:06.109Z,3112
2019-02-06T07:49:06.334Z,3144
2019-02-06T07:50:06.064Z,3152
2019-02-06T07:51:06.306Z,3192
2019-02-06T07:52:06.271Z,3240
2019-02-06T07:53:06.378Z,3276
2019-02-06T07:54:06.242Z,3312
2019-02-06T07:55:06.727Z,3340
2019-02-06T07:56:06.203Z,3376
2019-02-06T07:57:06.194Z,3376
2019-02-06T07:58:06.154Z,3384
2019-02-06T07:59:06.142Z,3396
2019-02-06T08:00:06.122Z,3376
2019-02-06T08:01:06.132Z,3380
2019-02-06T08:02:06.543Z,3376
2019-02-06T08:03:06.064Z,3348
2019-02-06T08:04:05.795Z,3352
2019-02-06T08:05:06.173Z,3336
2019-02-06T08:06:06.010Z,3324
2019-02-06T08:07:05.736Z,3292
2019-02-06T08:08:05.969Z,3252
2019-02-06T08:09:05.954Z,3212
2019-02-06T08:10:06.500Z,3208
2019-02-06T08:11:07.906Z,3208
2019-02-06T08:12:05.898Z,3224
2019-02-06T08:13:05.890Z,3232
2019-02-06T08:14:05.860Z,3256
2019-02-06T08:15:05.590Z,3292
2019-02-06T08:16:07.330Z,3340
2019-02-06T08:17:06.303Z,3372
2019-02-06T08:18:05.775Z,3412
2019-02-06T08:19:05.614Z,3448
2019-02-06T08:20:05.891Z,3484
2019-02-06T08:21:05.714Z,3532
2019-02-06T08:22:05.451Z,3596
2019-02-06T08:23:05.685Z,3652
2019-02-06T08:24:05.433Z,3708
2019-02-06T08:25:06.670Z,3752
2019-02-06T08:26:05.628Z,3800
2019-02-06T08:27:05.608Z,3860
2019-02-06T08:28:05.591Z,3920
2019-02-06T08:29:05.566Z,3992
2019-02-06T08:30:05.318Z,4028
2019-02-06T08:31:05.537Z,4060
2019-02-06T08:32:05.577Z,4112
2019-02-06T08:33:06.164Z,4148
2019-02-06T08:34:05.486Z,4156
2019-02-06T08:35:05.471Z,4208
2019-02-06T08:36:05.442Z,4276
2019-02-06T08:37:05.409Z,4332
2019-02-06T08:38:05.156Z,4380
2019-02-06T08:39:05.380Z,4396
2019-02-06T08:40:05.579Z,4416
2019-02-06T08:41:05.101Z,4412
2019-02-06T08:42:05.070Z,4408
2019-02-06T08:43:05.054Z,4416
2019-02-06T08:44:06.469Z,4424
2019-02-06T08:45:05.013Z,4408
2019-02-06T08:46:05.260Z,4412
2019-02-06T08:47:05.250Z,4388
2019-02-06T08:48:06.186Z,4368
2019-02-06T08:49:05.197Z,4344
2019-02-06T08:50:05.173Z,4328
2019-02-06T08:51:05.019Z,4300
2019-02-06T08:52:05.135Z,4272
2019-02-06T08:53:04.869Z,4256
2019-02-06T08:54:05.112Z,4248
2019-02-06T08:55:05.320Z,4252
2019-02-06T08:56:05.348Z,4252
2019-02-06T08:57:04.788Z,4256
2019-02-06T08:58:04.780Z,4256
2019-02-06T08:59:04.761Z,4260
2019-02-06T09:00:05.067Z,4276
2019-02-06T09:01:04.974Z,4296
2019-02-06T09:02:04.947Z,4308
2019-02-06T09:03:05.588Z,4324
2019-02-06T09:04:04.909Z,4340
2019-02-06T09:05:07.489Z,4364
2019-02-06T09:06:04.893Z,4376
2019-02-06T09:07:04.851Z,4404
2019-02-06T09:08:04.853Z,4428
2019-02-06T09:09:07.048Z,4420
2019-02-06T09:10:04.930Z,4420
2019-02-06T09:11:05.318Z,4444
2019-02-06T09:12:04.767Z,4456
2019-02-06T09:13:04.747Z,4448
2019-02-06T09:14:04.738Z,4476
2019-02-06T09:15:04.712Z,4484
2019-02-06T09:16:04.692Z,4488
2019-02-06T09:17:04.673Z,4448
2019-02-06T09:18:04.990Z,4436
2019-02-06T09:19:04.726Z,4404
2019-02-06T09:20:04.619Z,4376
2019-02-06T09:21:04.608Z,4344
2019-02-06T09:22:04.602Z,4304
2019-02-06T09:23:04.338Z,4276
2019-02-06T09:24:04.571Z,4284
2019-02-06T09:25:04.304Z,4300
2019-02-06T09:26:05.568Z,4308
2019-02-06T09:27:04.498Z,4300
2019-02-06T09:28:04.246Z,4336
2019-02-06T09:29:04.458Z,4344
2019-02-06T09:30:04.432Z,4356
2019-02-06T09:31:04.418Z,4332
2019-02-06T09:32:06.630Z,4276
2019-02-06T09:33:04.831Z,4260
2019-02-06T09:34:04.629Z,4248
2019-02-06T09:35:04.104Z,4224
2019-02-06T09:36:04.341Z,4188
2019-02-06T09:37:07.478Z,4136
2019-02-06T09:38:04.371Z,4092
2019-02-06T09:39:15.659Z,4032
2019-02-06T09:40:04.252Z,3980
2019-02-06T09:41:05.054Z,3920
2019-02-06T09:42:04.209Z,3860
2019-02-06T09:43:03.715Z,3860
2019-02-06T09:44:04.206Z,3864
2019-02-06T09:45:04.170Z,3896
2019-02-06T09:46:04.118Z,3924
2019-02-06T09:47:03.881Z,4000
2019-02-06T09:48:04.098Z,4056
2019-02-06T09:49:04.501Z,4116
2019-02-06T09:50:04.088Z,4172
2019-02-06T09:51:03.812Z,4196
2019-02-06T09:52:04.038Z,4196
2019-02-06T09:53:04.034Z,4148
2019-02-06T09:54:03.758Z,4148
2019-02-06T09:55:03.977Z,4116
2019-02-06T09:56:04.555Z,4104
2019-02-06T09:57:03.704Z,4100
2019-02-06T09:58:03.683Z,4100
2019-02-06T09:59:03.921Z,4096
2019-02-06T10:00:03.901Z,4092
2019-02-06T10:01:03.627Z,4056
2019-02-06T10:02:03.853Z,4024
2019-02-06T10:03:03.698Z,4032
2019-02-06T10:04:04.460Z,4052
2019-02-06T10:05:03.799Z,4056
2019-02-06T10:06:03.776Z,4096
2019-02-06T10:07:03.758Z,4124
2019-02-06T10:08:03.746Z,4144
2019-02-06T10:09:03.724Z,4208
2019-02-06T10:10:05.259Z,4276
2019-02-06T10:11:04.133Z,4324
2019-02-06T10:12:03.665Z,4356
2019-02-06T10:13:03.655Z,4360
2019-02-06T10:14:03.632Z,4376
2019-02-06T10:15:03.632Z,4392
2019-02-06T10:16:03.351Z,4456
2019-02-06T10:17:03.599Z,4504
2019-02-06T10:18:03.563Z,4536
2019-02-06T10:19:04.216Z,4592
2019-02-06T10:20:03.535Z,4632
2019-02-06T10:21:03.526Z,4692
2019-02-06T10:22:03.513Z,4756
2019-02-06T10:23:03.494Z,4848
2019-02-06T10:24:03.462Z,4948
2019-02-06T10:25:03.227Z,5036
2019-02-06T10:26:03.780Z,5092
2019-02-06T10:27:03.755Z,5144
2019-02-06T10:28:03.383Z,5160
2019-02-06T10:29:03.381Z,5172
2019-02-06T10:30:06.356Z,5164
2019-02-06T10:31:03.371Z,5196
2019-02-06T10:32:03.323Z,5232
2019-02-06T10:33:03.300Z,5284
2019-02-06T10:34:03.930Z,5308
2019-02-06T10:35:03.273Z,5408
2019-02-06T10:36:03.246Z,5496
2019-02-06T10:37:03.243Z,5536
2019-02-06T10:38:03.220Z,5556
2019-02-06T10:39:03.292Z,5592
2019-02-06T10:40:05.712Z,5540
2019-02-06T10:41:04.629Z,5516
2019-02-06T10:42:03.853Z,5528
2019-02-06T10:43:03.137Z,5500
2019-02-06T10:44:03.112Z,5540
2019-02-06T10:45:03.250Z,5508
2019-02-06T10:46:02.921Z,5436
2019-02-06T10:47:02.817Z,5404
2019-02-06T10:48:03.092Z,5408
2019-02-06T10:49:03.195Z,5360
2019-02-06T10:50:03.374Z,5296
2019-02-06T10:51:05.300Z,5208
2019-02-06T10:52:02.984Z,5104
2019-02-06T10:53:02.983Z,5020
2019-02-06T10:54:02.952Z,4924
2019-02-06T10:55:02.679Z,4800
2019-02-06T10:56:02.932Z,4648
2019-02-06T10:57:03.757Z,4648
2019-02-06T10:58:02.884Z,4652
2019-02-06T10:59:02.856Z,4628
2019-02-06T11:00:02.848Z,4584
2019-02-06T11:01:02.830Z,4568
2019-02-06T11:02:02.821Z,4552
2019-02-06T11:03:02.791Z,4540
2019-02-06T11:04:02.914Z,4544
2019-02-06T11:05:02.978Z,4580
2019-02-06T11:06:02.253Z,4596
2019-02-06T11:07:02.500Z,4624
2019-02-06T11:08:02.715Z,4632
2019-02-06T11:09:02.696Z,4660
2019-02-06T11:10:02.688Z,4680
2019-02-06T11:11:02.730Z,4680
2019-02-06T11:12:03.287Z,4652
2019-02-06T11:13:02.646Z,4656
2019-02-06T11:14:02.374Z,4672
2019-02-06T11:15:02.702Z,4684
2019-02-06T11:16:02.327Z,4692
2019-02-06T11:17:02.578Z,4676
2019-02-06T11:18:02.542Z,4668
2019-02-06T11:19:02.542Z,4656
2019-02-06T11:20:03.082Z,4692
2019-02-06T11:21:02.507Z,4720
2019-02-06T11:22:02.601Z,4644
2019-02-06T11:23:02.470Z,4640
2019-02-06T11:24:02.458Z,4620
2019-02-06T11:25:04.620Z,4660
2019-02-06T11:26:02.186Z,4672
2019-02-06T11:27:02.772Z,4644
2019-02-06T11:28:02.787Z,4644
2019-02-06T11:29:02.378Z,4588
2019-02-06T11:30:02.379Z,4552
2019-02-06T11:31:04.328Z,4612
2019-02-06T11:32:02.379Z,4612
2019-02-06T11:33:02.314Z,4584
2019-02-06T11:34:02.210Z,4560
2019-02-06T11:35:04.760Z,4512
2019-02-06T11:36:02.014Z,4476
2019-02-06T11:37:02.239Z,4524
2019-02-06T11:38:02.233Z,4500
2019-02-06T11:39:02.206Z,4460
2019-02-06T11:40:05.382Z,4436
2019-02-06T11:41:02.185Z,4432
2019-02-06T11:42:01.919Z,4416
2019-02-06T11:43:02.744Z,4412
2019-02-06T11:44:01.884Z,4416
2019-02-06T11:45:02.120Z,4408
2019-02-06T11:46:02.100Z,4360
2019-02-06T11:47:02.083Z,4316
2019-02-06T11:48:02.064Z,4288
2019-02-06T11:49:02.053Z,4276
2019-02-06T11:50:02.369Z,4248
2019-02-06T11:51:02.104Z,4192
2019-02-06T11:52:02.018Z,4188
2019-02-06T11:53:02.021Z,4168
2019-02-06T11:54:01.977Z,4132
2019-02-06T11:55:01.714Z,4076
2019-02-06T11:56:01.692Z,4092
2019-02-06T11:57:01.733Z,4048
2019-02-06T11:58:02.833Z,4036
2019-02-06T11:59:01.896Z,4024
2019-02-06T12:00:01.880Z,4024
2019-02-06T12:01:01.858Z,3996
2019-02-06T12:02:01.835Z,3956
2019-02-06T12:03:01.855Z,3944
2019-02-06T12:04:01.816Z,3924
2019-02-06T12:05:01.951Z,3912
2019-02-06T12:06:02.319Z,3852
2019-02-06T12:07:01.768Z,3804
2019-02-06T12:08:01.503Z,3768
2019-02-06T12:09:01.588Z,3784
2019-02-06T12:10:12.221Z,3780
2019-02-06T12:11:01.699Z,3736
2019-02-06T12:12:01.681Z,3720
2019-02-06T12:13:02.265Z,3704
2019-02-06T12:14:01.403Z,3636
2019-02-06T12:15:01.136Z,3708
2019-02-06T12:16:01.624Z,3676
2019-02-06T12:17:01.612Z,3628
2019-02-06T12:18:01.597Z,3604
2019-02-06T12:19:01.569Z,3580
2019-02-06T12:20:01.655Z,3496
2019-02-06T12:21:01.909Z,3400
2019-02-06T12:22:01.527Z,3524
2019-02-06T12:23:01.513Z,3512
2019-02-06T12:24:01.488Z,3504
2019-02-06T12:25:01.469Z,3504
2019-02-06T12:26:01.458Z,3504
2019-02-06T12:27:01.194Z,3492
2019-02-06T12:28:04.831Z,3456
2019-02-06T12:29:01.425Z,3344
2019-02-06T12:30:01.400Z,3412
2019-02-06T12:31:03.382Z,3388
2019-02-06T12:32:00.867Z,3372
2019-02-06T12:33:01.121Z,3336
2019-02-06T12:34:01.096Z,3320
2019-02-06T12:35:01.518Z,3300
2019-02-06T12:36:01.704Z,3280
2019-02-06T12:37:01.037Z,3244
2019-02-06T12:38:01.265Z,3188
2019-02-06T12:39:01.260Z,3144
2019-02-06T12:40:01.232Z,3164
2019-02-06T12:41:01.232Z,3156
2019-02-06T12:42:02.023Z,3136
2019-02-06T12:43:00.692Z,3120
2019-02-06T12:44:00.905Z,3104
2019-02-06T12:45:03.744Z,3084
2019-02-06T12:46:01.152Z,3060
2019-02-06T12:47:01.124Z,3028
2019-02-06T12:48:01.160Z,3008
2019-02-06T12:49:01.290Z,2984
2019-02-06T12:50:01.291Z,2968
2019-02-06T12:51:01.053Z,2956
2019-02-06T12:52:01.041Z,2944
2019-02-06T12:53:02.398Z,2912
2019-02-06T12:54:01.035Z,2896
2019-02-06T12:55:00.868Z,2888
2019-02-06T12:56:00.994Z,2892
2019-02-06T12:57:01.717Z,2876
2019-02-06T12:58:00.686Z,2864
2019-02-06T12:59:00.946Z,2856
2019-02-06T13:00:00.994Z,2840
2019-02-06T13:01:00.885Z,2836
2019-02-06T13:02:00.882Z,2832
2019-02-06T13:03:06.099Z,2824
2019-02-06T13:04:01.026Z,2820
2019-02-06T13:05:01.151Z,2812
2019-02-06T13:06:00.556Z,2800
2019-02-06T13:07:02.834Z,2796
2019-02-06T13:08:00.530Z,2800
2019-02-06T13:09:00.750Z,2792
2019-02-06T13:10:00.742Z,2780
2019-02-06T13:11:00.722Z,2792
2019-02-06T13:12:01.592Z,2796
2019-02-06T13:13:00.701Z,2792
2019-02-06T13:14:00.682Z,2796
2019-02-06T13:15:00.664Z,2800
2019-02-06T13:16:00.647Z,2800
2019-02-06T13:17:00.380Z,2808
2019-02-06T13:18:00.613Z,2812
2019-02-06T13:19:00.755Z,2820
2019-02-06T13:20:01.033Z,2828
2019-02-06T13:21:00.559Z,2828
2019-02-06T13:22:00.534Z,2816
2019-02-06T13:23:00.517Z,2812
2019-02-06T13:24:00.512Z,2832
2019-02-06T13:25:00.354Z,2848
2019-02-06T13:26:00.471Z,2860
2019-02-06T13:27:00.821Z,2844
2019-02-06T13:28:00.446Z,2828
2019-02-06T13:29:00.428Z,2812
2019-02-06T13:30:00.202Z,2788
2019-02-06T13:31:00.391Z,2776
2019-02-06T13:32:00.120Z,2768
2019-02-06T13:33:00.369Z,2764
2019-02-06T13:34:00.357Z,2760
2019-02-06T13:35:00.844Z,2740
2019-02-06T13:36:00.307Z,2736
2019-02-06T13:37:00.300Z,2712
2019-02-06T13:38:00.279Z,2684
2019-02-06T13:39:00.258Z,2644
2019-02-06T13:40:00.342Z,2620
2019-02-06T13:40:59.968Z,2612
2019-02-06T13:42:00.054Z,2600
2019-02-06T13:43:00.588Z,2600
2019-02-06T13:44:00.230Z,2592
2019-02-06T13:45:00.293Z,2584
2019-02-06T13:46:00.138Z,2576
2019-02-06T13:47:00.853Z,2560
2019-02-06T13:48:00.119Z,2572
2019-02-06T13:49:00.086Z,2572
2019-02-06T13:50:00.654Z,2556
2019-02-06T13:50:59.810Z,2552
2019-02-06T13:52:00.036Z,2536
2019-02-06T13:53:00.022Z,2548
2019-02-06T13:53:59.769Z,2568
2019-02-06T13:54:59.994Z,2576
2019-02-06T13:55:59.961Z,2576
2019-02-06T13:56:59.944Z,2592